createdAt,value
2023-05-08T00:00:55.836Z,7.20
2023-05-08T00:03:22.391Z,7.38
2023-05-08T00:05:48.825Z,7.82
2023-05-08T00:08:15.212Z,7.18
2023-05-08T00:10:41.599Z,7.20
2023-05-08T00:13:08.015Z,7.47
2023-05-08T00:15:34.437Z,7.35
2023-05-08T00:18:01.036Z,8.25
2023-05-08T00:20:27.538Z,7.68
2023-05-08T00:22:54.002Z,7.35
2023-05-08T00:25:20.396Z,8.30
2023-05-08T00:27:46.835Z,7.78
2023-05-08T00:30:13.450Z,7.15
2023-05-08T00:32:40.046Z,7.80
2023-05-08T00:35:06.473Z,8.57
2023-05-08T00:37:32.892Z,7.80
2023-05-08T00:39:59.320Z,8.30
2023-05-08T00:42:25.746Z,8.43
2023-05-08T00:44:52.125Z,7.90
2023-05-08T00:47:18.514Z,7.88
2023-05-08T00:49:45.065Z,7.70
2023-05-08T00:52:11.464Z,7.20
2023-05-08T00:54:37.841Z,7.85
2023-05-08T00:57:04.219Z,8.18
2023-05-08T00:59:30.579Z,8.60
2023-05-08T01:01:56.991Z,8.68
2023-05-08T01:04:23.408Z,8.23
2023-05-08T01:06:49.842Z,8.10
2023-05-08T01:09:16.291Z,7.47
2023-05-08T01:11:42.739Z,7.72
2023-05-08T01:14:09.184Z,7.53
2023-05-08T01:16:35.717Z,7.47
2023-05-08T01:19:02.205Z,7.30
2023-05-08T01:21:28.727Z,8.30
2023-05-08T01:23:55.142Z,8.00
2023-05-08T01:26:21.587Z,7.72
2023-05-08T01:28:47.989Z,8.52
2023-05-08T01:31:14.458Z,7.35
2023-05-08T01:33:40.966Z,7.53
2023-05-08T01:36:07.382Z,7.18
2023-05-08T01:38:33.795Z,7.53
2023-05-08T01:41:00.191Z,7.80
2023-05-08T01:43:26.675Z,7.45
2023-05-08T01:45:53.119Z,7.68
2023-05-08T01:48:19.505Z,7.28
2023-05-08T01:50:45.910Z,7.82
2023-05-08T01:53:12.363Z,8.02
2023-05-08T01:55:38.825Z,7.32
2023-05-08T01:58:05.272Z,8.63
2023-05-08T02:00:31.729Z,8.45
2023-05-08T02:02:58.484Z,7.70
2023-05-08T02:05:25.004Z,8.70
2023-05-08T02:07:51.391Z,8.50
2023-05-08T02:10:17.810Z,8.43
2023-05-08T02:12:44.327Z,8.65
2023-05-08T02:15:10.786Z,7.90
2023-05-08T02:17:37.215Z,8.20
2023-05-08T02:20:03.733Z,8.77
2023-05-08T02:22:30.178Z,7.82
2023-05-08T02:24:56.626Z,7.78
2023-05-08T02:27:23.046Z,8.05
2023-05-08T02:29:49.488Z,7.68
2023-05-08T02:32:15.900Z,8.35
2023-05-08T02:34:51.196Z,8.40
2023-05-08T02:37:25.673Z,8.05
2023-05-08T02:39:52.163Z,7.57
2023-05-08T02:42:18.571Z,8.02
2023-05-08T02:44:44.958Z,7.82
2023-05-08T02:47:11.394Z,7.63
2023-05-08T02:49:37.776Z,7.88
2023-05-08T02:52:04.144Z,8.80
2023-05-08T02:54:30.581Z,8.40
2023-05-08T02:56:57.014Z,8.05
2023-05-08T02:59:23.475Z,8.45
2023-05-08T03:01:49.939Z,7.88
2023-05-08T03:04:16.401Z,8.30
2023-05-08T03:06:42.848Z,8.40
2023-05-08T03:09:09.231Z,8.25
2023-05-08T03:11:35.622Z,7.15
2023-05-08T03:14:02.029Z,7.97
2023-05-08T03:16:28.516Z,7.60
2023-05-08T03:18:54.949Z,7.22
2023-05-08T03:21:21.386Z,7.13
2023-05-08T03:23:47.847Z,7.88
2023-05-08T03:26:14.305Z,7.55
2023-05-08T03:28:40.732Z,7.88
2023-05-08T03:31:07.290Z,8.15
2023-05-08T03:33:33.772Z,7.60
2023-05-08T03:36:00.251Z,7.30
2023-05-08T03:38:26.700Z,7.97
2023-05-08T03:40:53.128Z,7.70
2023-05-08T03:43:19.533Z,7.60
2023-05-08T03:45:45.986Z,7.80
2023-05-08T03:48:12.486Z,8.80
2023-05-08T03:50:39.004Z,9.07
2023-05-08T03:53:05.477Z,8.52
2023-05-08T03:55:32.003Z,8.30
2023-05-08T03:57:58.478Z,8.55
2023-05-08T04:00:24.906Z,8.70
2023-05-08T04:02:51.399Z,8.57
2023-05-08T04:05:17.937Z,7.72
2023-05-08T04:07:44.398Z,7.90
2023-05-08T04:10:11.043Z,8.65
2023-05-08T04:12:37.767Z,8.07
2023-05-08T04:15:04.223Z,8.70
2023-05-08T04:17:30.692Z,8.55
2023-05-08T04:19:57.120Z,8.20
2023-05-08T04:22:23.528Z,7.70
2023-05-08T04:24:49.897Z,8.82
2023-05-08T04:27:16.348Z,8.40
2023-05-08T04:29:42.737Z,8.20
2023-05-08T04:32:09.263Z,8.05
2023-05-08T04:34:35.875Z,8.90
2023-05-08T04:37:02.257Z,9.05
2023-05-08T04:39:28.629Z,8.20
2023-05-08T04:41:55.020Z,8.50
2023-05-08T04:44:21.427Z,8.25
2023-05-08T04:46:47.795Z,7.80
2023-05-08T04:49:14.299Z,8.52
2023-05-08T04:51:40.700Z,9.05
2023-05-08T04:54:07.132Z,8.82
2023-05-08T04:56:33.590Z,8.75
2023-05-08T04:58:59.986Z,9.65
2023-05-08T05:01:26.405Z,11.02
2023-05-08T05:03:52.877Z,10.73
2023-05-08T05:06:19.312Z,9.43
2023-05-08T05:08:45.680Z,8.85
2023-05-08T05:11:12.049Z,8.00
2023-05-08T05:13:38.510Z,8.63
2023-05-08T05:16:05.060Z,7.70
2023-05-08T05:18:31.576Z,8.93
2023-05-08T05:20:58.019Z,7.85
2023-05-08T05:23:24.419Z,7.47
2023-05-08T05:25:50.859Z,8.30
2023-05-08T05:28:17.288Z,9.60
2023-05-08T05:30:43.729Z,9.77
2023-05-08T05:33:10.153Z,9.38
2023-05-08T05:35:36.585Z,9.23
2023-05-08T05:38:02.972Z,8.43
2023-05-08T05:40:29.419Z,7.85
2023-05-08T05:42:55.869Z,7.75
2023-05-08T05:45:22.252Z,7.72
2023-05-08T05:47:48.658Z,8.60
2023-05-08T05:50:15.131Z,9.30
2023-05-08T05:52:41.574Z,8.85
2023-05-08T05:55:08.046Z,8.55
2023-05-08T05:57:34.449Z,7.97
2023-05-08T06:00:00.844Z,7.93
2023-05-08T06:02:27.427Z,8.43
2023-05-08T06:04:53.854Z,8.40
2023-05-08T06:07:20.254Z,7.35
2023-05-08T06:09:46.698Z,9.30
2023-05-08T06:12:13.203Z,8.57
2023-05-08T06:14:39.591Z,9.38
2023-05-08T06:17:06.077Z,9.50
2023-05-08T06:19:32.578Z,9.05
2023-05-08T06:21:59.017Z,9.30
2023-05-08T06:24:25.406Z,8.80
2023-05-08T06:26:51.793Z,8.80
2023-05-08T06:29:18.249Z,8.18
2023-05-08T06:31:44.726Z,7.18
2023-05-08T06:34:11.108Z,7.10
2023-05-08T06:36:37.545Z,8.00
2023-05-08T06:39:03.989Z,8.00
2023-05-08T06:41:30.415Z,6.72
2023-05-08T06:43:56.844Z,8.07
2023-05-08T06:46:23.294Z,9.02
2023-05-08T06:48:49.702Z,8.93
2023-05-08T06:51:16.112Z,8.27
2023-05-08T06:53:42.571Z,7.75
2023-05-08T06:56:09.018Z,7.63
2023-05-08T06:58:35.458Z,7.80
2023-05-08T07:01:01.903Z,6.75
2023-05-08T07:03:28.299Z,6.88
2023-05-08T07:05:54.665Z,7.35
2023-05-08T07:08:21.087Z,6.93
2023-05-08T07:10:47.702Z,6.50
2023-05-08T07:13:14.281Z,7.63
2023-05-08T07:15:40.812Z,7.25
2023-05-08T07:18:07.340Z,7.20
2023-05-08T07:20:33.762Z,7.28
2023-05-08T07:23:00.162Z,7.85
2023-05-08T07:25:26.567Z,6.63
2023-05-08T07:27:52.975Z,6.38
2023-05-08T07:30:19.426Z,6.88
2023-05-08T07:32:45.897Z,6.45
2023-05-08T07:35:12.840Z,7.20
2023-05-08T07:37:39.581Z,7.25
2023-05-08T07:40:06.016Z,7.70
2023-05-08T07:42:32.464Z,6.93
2023-05-08T07:44:58.866Z,6.75
2023-05-08T07:47:25.292Z,6.97
2023-05-08T07:49:51.720Z,7.18
2023-05-08T07:52:18.132Z,7.65
2023-05-08T07:54:44.754Z,7.80
2023-05-08T07:57:11.182Z,7.50
2023-05-08T07:59:37.670Z,7.93
2023-05-08T08:02:04.171Z,7.50
2023-05-08T08:04:30.689Z,7.10
2023-05-08T08:06:57.312Z,6.50
2023-05-08T08:09:23.809Z,7.03
2023-05-08T08:11:50.216Z,7.32
2023-05-08T08:14:16.653Z,7.13
2023-05-08T08:16:43.152Z,6.88
2023-05-08T08:19:09.651Z,6.95
2023-05-08T08:21:36.064Z,7.72
2023-05-08T08:24:02.497Z,7.65
2023-05-08T08:26:28.932Z,7.30
2023-05-08T08:28:55.378Z,6.63
2023-05-08T08:31:21.936Z,7.30
2023-05-08T08:33:48.533Z,7.90
2023-05-08T08:36:15.591Z,6.70
2023-05-08T08:38:42.013Z,6.80
2023-05-08T08:41:08.433Z,7.97
2023-05-08T08:43:34.872Z,7.63
2023-05-08T08:46:01.320Z,7.70
2023-05-08T08:48:27.784Z,7.47
2023-05-08T08:50:54.233Z,7.15
2023-05-08T08:53:20.702Z,6.50
2023-05-08T08:55:47.187Z,7.00
2023-05-08T08:58:13.582Z,7.05
2023-05-08T09:00:40.200Z,7.43
2023-05-08T09:03:06.718Z,7.47
2023-05-08T09:05:33.220Z,7.00
2023-05-08T09:07:59.668Z,6.72
2023-05-08T09:10:26.146Z,8.05
2023-05-08T09:12:52.645Z,7.63
2023-05-08T09:15:19.109Z,6.80
2023-05-08T09:17:46.746Z,7.07
2023-05-08T09:20:13.486Z,6.78
2023-05-08T09:22:39.990Z,6.38
2023-05-08T09:25:06.382Z,8.35
2023-05-08T09:27:32.785Z,7.05
2023-05-08T09:29:59.263Z,8.93
2023-05-08T09:32:25.722Z,7.88
2023-05-08T09:34:52.251Z,9.02
2023-05-08T09:37:18.650Z,7.32
2023-05-08T09:39:45.132Z,7.65
2023-05-08T09:42:11.579Z,8.55
2023-05-08T09:44:38.079Z,9.85
2023-05-08T09:47:04.531Z,8.68
2023-05-08T09:49:30.987Z,7.45
2023-05-08T09:51:57.458Z,9.85
2023-05-08T09:54:23.955Z,8.57
2023-05-08T09:56:50.711Z,8.40
2023-05-08T09:59:17.102Z,8.93
2023-05-08T10:01:43.624Z,8.40
2023-05-08T10:04:10.328Z,8.48
2023-05-08T10:06:36.771Z,7.93
2023-05-08T10:09:03.297Z,8.23
2023-05-08T10:11:29.771Z,7.90
2023-05-08T10:13:56.215Z,7.82
2023-05-08T10:16:22.720Z,8.32
2023-05-08T10:18:49.615Z,7.95
2023-05-08T10:21:16.006Z,7.82
2023-05-08T10:23:42.458Z,8.88
2023-05-08T10:26:08.907Z,9.00
2023-05-08T10:28:35.360Z,8.50
2023-05-08T10:31:01.900Z,8.80
2023-05-08T10:33:29.611Z,8.93
2023-05-08T10:35:57.478Z,7.85
2023-05-08T10:38:23.943Z,7.65
2023-05-08T10:40:50.658Z,7.13
2023-05-08T10:43:17.222Z,8.20
2023-05-08T10:45:43.702Z,8.02
2023-05-08T10:48:10.134Z,6.07
2023-05-08T10:50:36.718Z,6.72
2023-05-08T10:53:03.178Z,7.18
2023-05-08T10:55:29.554Z,6.80
2023-05-08T10:57:56.006Z,6.50
2023-05-08T11:00:22.408Z,7.03
2023-05-08T11:02:48.926Z,6.72
2023-05-08T11:05:15.423Z,7.22
2023-05-08T11:07:41.884Z,7.20
2023-05-08T11:10:08.260Z,7.50
2023-05-08T11:12:34.673Z,7.13
2023-05-08T11:15:01.146Z,7.20
2023-05-08T11:17:27.591Z,7.05
2023-05-08T11:19:54.090Z,8.35
2023-05-08T11:22:20.711Z,7.55
2023-05-08T11:24:47.167Z,8.05
2023-05-08T11:27:13.561Z,8.70
2023-05-08T11:29:40.008Z,7.75
2023-05-08T11:32:06.525Z,8.65
2023-05-08T11:34:32.985Z,8.45
2023-05-08T11:36:59.404Z,9.05
2023-05-08T11:39:25.803Z,8.18
2023-05-08T11:41:52.236Z,8.38
2023-05-08T11:44:18.686Z,8.77
2023-05-08T11:46:45.226Z,8.85
2023-05-08T11:49:11.771Z,7.88
2023-05-08T11:51:38.193Z,8.07
2023-05-08T11:54:04.680Z,8.70
2023-05-08T11:56:31.082Z,9.77
2023-05-08T11:58:57.532Z,8.95
2023-05-08T12:01:23.987Z,9.25
2023-05-08T12:03:50.854Z,9.70
2023-05-08T12:06:17.326Z,8.18
2023-05-08T12:08:43.956Z,9.40
2023-05-08T12:11:10.557Z,9.35
2023-05-08T12:13:37.086Z,9.63
2023-05-08T12:16:03.522Z,9.13
2023-05-08T12:18:29.902Z,8.98
2023-05-08T12:20:56.327Z,9.52
2023-05-08T12:23:22.748Z,8.90
2023-05-08T12:25:49.452Z,9.25
2023-05-08T12:28:15.840Z,8.95
2023-05-08T12:30:42.227Z,9.07
2023-05-08T12:33:08.819Z,10.20
2023-05-08T12:35:35.346Z,10.82
2023-05-08T12:38:01.890Z,14.93
2023-05-08T12:40:28.296Z,10.73
2023-05-08T12:42:54.734Z,11.25
2023-05-08T12:45:21.105Z,10.93
2023-05-08T12:47:47.572Z,8.95
2023-05-08T12:50:14.504Z,7.95
2023-05-08T12:52:41.190Z,7.43
2023-05-08T12:55:07.662Z,7.18
2023-05-08T12:57:34.049Z,6.15
2023-05-08T13:00:02.077Z,5.80
2023-05-08T13:02:30.173Z,5.13
2023-05-08T13:04:56.872Z,4.43
2023-05-08T13:07:23.300Z,5.68
2023-05-08T13:09:49.697Z,6.35
2023-05-08T13:12:16.190Z,6.15
2023-05-08T13:14:42.658Z,6.35
2023-05-08T13:17:09.105Z,7.80
2023-05-08T13:19:35.503Z,7.72
2023-05-08T13:22:01.899Z,7.28
2023-05-08T13:24:28.335Z,7.65
2023-05-08T13:26:54.741Z,8.32
2023-05-08T13:29:21.174Z,7.55
2023-05-08T13:31:47.691Z,8.48
2023-05-08T13:34:14.266Z,10.10
2023-05-08T13:36:40.690Z,9.60
2023-05-08T13:39:07.100Z,8.65
2023-05-08T13:41:33.501Z,9.30
2023-05-08T13:43:59.960Z,8.73
2023-05-08T13:46:26.526Z,9.15
2023-05-08T13:48:53.096Z,8.80
2023-05-08T13:51:19.469Z,9.13
2023-05-08T13:53:45.905Z,8.98
2023-05-08T13:56:12.356Z,8.70
2023-05-08T13:58:38.784Z,8.77
2023-05-08T14:01:25.058Z,8.43
2023-05-08T14:03:53.377Z,8.25
2023-05-08T14:06:20.008Z,8.18
2023-05-08T14:08:49.454Z,8.30
2023-05-08T14:11:17.520Z,8.18
2023-05-08T14:13:44.275Z,8.45
2023-05-08T14:16:10.732Z,8.27
2023-05-08T14:18:37.151Z,7.95
2023-05-08T14:21:03.537Z,7.43
2023-05-08T14:23:29.940Z,9.55
2023-05-08T14:25:56.423Z,7.97
2023-05-08T14:28:22.853Z,8.30
2023-05-08T14:30:49.435Z,7.65
2023-05-08T14:33:17.831Z,8.50
2023-05-08T14:35:45.636Z,6.90
2023-05-08T14:38:12.034Z,7.85
2023-05-08T14:40:38.457Z,8.10
2023-05-08T14:43:04.860Z,7.70
2023-05-08T14:45:31.330Z,7.28
2023-05-08T14:47:57.857Z,7.63
2023-05-08T14:50:24.271Z,6.93
2023-05-08T14:52:50.796Z,7.20
2023-05-08T14:55:17.597Z,7.93
2023-05-08T14:57:44.488Z,9.93
2023-05-08T15:00:10.890Z,10.65
2023-05-08T15:02:37.364Z,11.77
2023-05-08T15:07:50.319Z,12.18
2023-05-08T15:10:16.867Z,11.43
2023-05-08T15:12:43.330Z,11.98
2023-05-08T15:15:09.825Z,12.63
2023-05-08T15:17:36.376Z,13.73
2023-05-08T15:20:02.804Z,12.38
2023-05-08T15:22:29.292Z,13.70
2023-05-08T15:24:55.729Z,11.52
2023-05-08T15:27:22.175Z,9.88
2023-05-08T15:29:48.579Z,7.60
2023-05-08T15:32:15.425Z,6.20
2023-05-08T15:34:41.943Z,6.10
2023-05-08T15:37:08.438Z,5.32
2023-05-08T15:39:34.832Z,5.20
2023-05-08T15:42:01.226Z,6.78
2023-05-08T15:44:41.723Z,5.78
2023-05-08T15:47:14.291Z,6.15
2023-05-08T15:49:40.746Z,5.85
2023-05-08T15:52:07.284Z,6.53
2023-05-08T15:54:33.830Z,6.65
2023-05-08T15:57:00.250Z,6.35
2023-05-08T15:59:26.631Z,6.28
2023-05-08T16:01:53.694Z,6.53
2023-05-08T16:04:20.475Z,6.65
2023-05-08T16:06:46.855Z,6.35
2023-05-08T16:09:13.525Z,6.60
2023-05-08T16:11:40.014Z,5.85
2023-05-08T16:14:06.479Z,5.88
2023-05-08T16:16:33.081Z,5.97
2023-05-08T16:18:59.633Z,6.10
2023-05-08T16:21:26.011Z,5.63
2023-05-08T16:23:52.487Z,5.72
2023-05-08T16:26:18.910Z,6.03
2023-05-08T16:28:45.382Z,5.80
2023-05-08T16:31:11.791Z,5.90
2023-05-08T16:33:38.210Z,5.65
2023-05-08T16:36:04.644Z,6.63
2023-05-08T16:38:31.052Z,6.15
2023-05-08T16:40:57.449Z,5.53
2023-05-08T16:43:23.852Z,7.18
2023-05-08T16:45:50.324Z,6.60
2023-05-08T16:48:16.878Z,6.35
2023-05-08T16:50:43.283Z,5.93
2023-05-08T16:53:09.756Z,5.90
2023-05-08T16:55:36.155Z,6.63
2023-05-08T16:58:02.596Z,6.57
2023-05-08T17:00:28.990Z,6.40
2023-05-08T17:02:55.499Z,6.20
2023-05-08T17:05:21.962Z,6.32
2023-05-08T17:07:48.530Z,6.55
2023-05-08T17:10:14.996Z,6.40
2023-05-08T17:12:41.471Z,6.55
2023-05-08T17:15:07.899Z,6.85
2023-05-08T17:17:34.347Z,7.00
2023-05-08T17:20:00.833Z,6.90
2023-05-08T17:22:27.376Z,6.75
2023-05-08T17:24:53.895Z,6.47
2023-05-08T17:27:20.505Z,6.50
2023-05-08T17:29:46.959Z,6.35
2023-05-08T17:32:13.422Z,6.35
2023-05-08T17:34:39.941Z,6.80
2023-05-08T17:37:06.399Z,7.07
2023-05-08T17:39:32.876Z,7.03
2023-05-08T17:41:59.285Z,7.63
2023-05-08T17:44:25.683Z,7.82
2023-05-08T17:46:52.120Z,7.55
2023-05-08T17:49:19.462Z,8.40
2023-05-08T17:51:46.135Z,7.97
2023-05-08T17:54:12.621Z,7.25
2023-05-08T17:56:39.098Z,7.60
2023-05-08T17:59:05.532Z,7.72
2023-05-08T18:01:32.110Z,7.95
2023-05-08T18:03:58.580Z,8.63
2023-05-08T18:06:25.005Z,8.18
2023-05-08T18:08:51.766Z,9.45
2023-05-08T18:11:18.207Z,7.93
2023-05-08T18:13:44.749Z,8.65
2023-05-08T18:16:11.266Z,8.52
2023-05-08T18:18:37.768Z,9.27
2023-05-08T18:21:04.208Z,9.45
2023-05-08T18:23:30.636Z,8.88
2023-05-08T18:25:57.053Z,8.98
2023-05-08T18:28:23.473Z,9.13
2023-05-08T18:30:49.856Z,8.23
2023-05-08T18:33:16.273Z,8.75
2023-05-08T18:35:42.741Z,8.90
2023-05-08T18:38:09.124Z,8.52
2023-05-08T18:40:35.574Z,8.43
2023-05-08T18:43:02.022Z,7.88
2023-05-08T18:45:28.409Z,8.63
2023-05-08T18:47:54.904Z,8.07
2023-05-08T18:50:21.342Z,8.40
2023-05-08T18:52:47.745Z,9.45
2023-05-08T18:55:14.361Z,8.75
2023-05-08T18:57:40.815Z,9.50
2023-05-08T19:00:07.203Z,8.98
2023-05-08T19:02:33.687Z,10.60
2023-05-08T19:05:00.184Z,9.75
2023-05-08T19:07:26.645Z,9.63
2023-05-08T19:09:53.102Z,9.55
2023-05-08T19:12:19.562Z,9.52
2023-05-08T19:14:45.938Z,9.43
2023-05-08T19:17:12.389Z,7.90
2023-05-08T19:19:38.857Z,9.43
2023-05-08T19:22:05.244Z,10.00
2023-05-08T19:24:31.662Z,10.85
2023-05-08T19:26:58.111Z,11.57
2023-05-08T19:29:24.546Z,9.88
2023-05-08T19:31:50.999Z,9.90
2023-05-08T19:34:17.577Z,9.90
2023-05-08T19:36:44.044Z,10.35
2023-05-08T19:39:10.477Z,10.82
2023-05-08T19:41:36.910Z,10.90
2023-05-08T19:44:03.324Z,10.20
2023-05-08T19:46:29.759Z,10.38
2023-05-08T19:48:56.259Z,11.32
2023-05-08T19:51:22.717Z,11.55
2023-05-08T19:53:49.407Z,12.02
2023-05-08T19:56:15.877Z,12.10
2023-05-08T19:58:42.355Z,12.38
2023-05-08T20:01:08.827Z,11.85
2023-05-08T20:03:35.351Z,11.88
2023-05-08T20:06:01.852Z,12.18
2023-05-08T20:08:28.289Z,12.13
2023-05-08T20:10:54.677Z,12.13
2023-05-08T20:13:21.234Z,11.88
2023-05-08T20:15:47.826Z,11.13
2023-05-08T20:18:14.243Z,12.25
2023-05-08T20:20:40.705Z,12.35
2023-05-08T20:23:07.095Z,13.05
2023-05-08T20:25:33.545Z,12.15
2023-05-08T20:27:59.950Z,11.90
2023-05-08T20:30:26.390Z,10.57
2023-05-08T20:32:52.853Z,11.50
2023-05-08T20:35:19.277Z,11.30
2023-05-08T20:37:45.716Z,11.90
2023-05-08T20:40:12.521Z,12.00
2023-05-08T20:42:39.170Z,12.10
2023-05-08T20:45:05.604Z,13.50
2023-05-08T20:47:32.139Z,14.82
2023-05-08T20:49:58.554Z,12.45
2023-05-08T20:52:24.926Z,13.25
2023-05-08T20:54:51.386Z,12.13
2023-05-08T20:57:17.804Z,12.25
2023-05-08T20:59:44.423Z,11.43
2023-05-08T21:02:10.822Z,11.05
2023-05-08T21:04:37.207Z,11.38
2023-05-08T21:07:03.703Z,10.35
2023-05-08T21:09:30.098Z,11.63
2023-05-08T21:11:56.538Z,10.73
2023-05-08T21:14:23.006Z,10.57
2023-05-08T21:16:49.486Z,11.55
2023-05-08T21:19:15.935Z,11.65
2023-05-08T21:21:42.362Z,11.30
2023-05-08T21:24:08.748Z,10.65
2023-05-08T21:26:35.204Z,11.25
2023-05-08T21:29:01.628Z,11.80
2023-05-08T21:31:28.078Z,10.88
2023-05-08T21:33:54.529Z,10.23
2023-05-08T21:36:20.971Z,11.65
2023-05-08T21:38:47.369Z,12.65
2023-05-08T21:41:13.983Z,11.15
2023-05-08T21:43:40.354Z,11.70
2023-05-08T21:46:06.852Z,11.80
2023-05-08T21:48:33.343Z,11.82
2023-05-08T21:50:59.799Z,11.80
2023-05-08T21:53:26.243Z,11.85
2023-05-08T21:55:52.695Z,11.95
2023-05-08T21:58:19.133Z,11.20
2023-05-08T22:00:45.578Z,12.15
2023-05-08T22:03:12.142Z,11.45
2023-05-08T22:05:38.582Z,11.30
2023-05-08T22:08:04.988Z,13.48
2023-05-08T22:10:31.397Z,12.43
2023-05-08T22:12:57.875Z,13.52
2023-05-08T22:15:30.328Z,14.32
2023-05-08T22:17:57.494Z,13.65
2023-05-08T22:20:23.907Z,12.05
2023-05-08T22:22:50.367Z,11.50
2023-05-08T22:25:16.746Z,12.73
2023-05-08T22:27:43.174Z,11.75
2023-05-08T22:30:09.612Z,11.63
2023-05-08T22:32:36.057Z,12.30
2023-05-08T22:35:02.485Z,11.20
2023-05-08T22:37:28.859Z,11.32
2023-05-08T22:39:55.265Z,12.25
2023-05-08T22:42:21.692Z,12.32
2023-05-08T22:44:48.069Z,12.57
2023-05-08T22:47:14.562Z,12.55
2023-05-08T22:49:41.045Z,13.25
2023-05-08T22:52:07.482Z,12.45
2023-05-08T22:54:33.855Z,13.77
2023-05-08T22:57:00.268Z,14.02
2023-05-08T22:59:26.672Z,13.15
2023-05-08T23:01:53.084Z,13.52
2023-05-08T23:04:19.499Z,14.95
2023-05-08T23:06:45.964Z,14.05
2023-05-08T23:09:12.365Z,14.18
2023-05-08T23:11:38.740Z,15.23
2023-05-08T23:14:05.144Z,12.48
2023-05-08T23:16:31.634Z,13.25
2023-05-08T23:18:58.110Z,13.20
2023-05-08T23:21:24.514Z,13.75
2023-05-08T23:23:50.878Z,13.02
2023-05-08T23:26:17.257Z,13.30
2023-05-08T23:28:43.888Z,12.60
2023-05-08T23:31:10.376Z,13.75
2023-05-08T23:33:36.838Z,13.77
2023-05-08T23:36:03.269Z,13.32
2023-05-08T23:38:29.709Z,13.05
2023-05-08T23:40:56.103Z,13.10
2023-05-08T23:43:22.482Z,13.57
2023-05-08T23:45:48.929Z,13.20
2023-05-08T23:48:15.384Z,12.63
2023-05-08T23:50:41.810Z,13.80
2023-05-08T23:53:08.240Z,14.98
2023-05-08T23:55:34.679Z,14.00
2023-05-08T23:58:01.349Z,13.63
